sensor_id;sensor_type;location;lat;lon;timestamp;P1;durP1;ratioP1;P2;durP2;ratioP2
64387;SDS011;50709;52.648;4.764;2023-07-30T00:01:11;12.80;;;4.47;;
64387;SDS011;50709;52.648;4.764;2023-07-30T00:03:37;12.40;;;3.90;;
64387;SDS011;50709;52.648;4.764;2023-07-30T00:06:03;13.32;;;4.15;;
64387;SDS011;50709;52.648;4.764;2023-07-30T00:08:28;10.40;;;3.67;;
64387;SDS011;50709;52.648;4.764;2023-07-30T00:10:56;12.63;;;3.70;;
64387;SDS011;50709;52.648;4.764;2023-07-30T00:13:22;11.43;;;3.72;;
64387;SDS011;50709;52.648;4.764;2023-07-30T00:15:48;13.90;;;3.90;;
64387;SDS011;50709;52.648;4.764;2023-07-30T00:18:13;17.60;;;3.63;;
64387;SDS011;50709;52.648;4.764;2023-07-30T00:20:39;13.88;;;3.75;;
64387;SDS011;50709;52.648;4.764;2023-07-30T00:23:04;11.10;;;3.78;;
64387;SDS011;50709;52.648;4.764;2023-07-30T00:25:30;14.48;;;3.22;;
64387;SDS011;50709;52.648;4.764;2023-07-30T00:27:55;12.02;;;3.22;;
64387;SDS011;50709;52.648;4.764;2023-07-30T00:30:20;10.52;;;3.22;;
64387;SDS011;50709;52.648;4.764;2023-07-30T00:32:46;13.55;;;3.95;;
64387;SDS011;50709;52.648;4.764;2023-07-30T00:35:11;13.02;;;3.90;;
64387;SDS011;50709;52.648;4.764;2023-07-30T00:37:36;10.68;;;3.50;;
64387;SDS011;50709;52.648;4.764;2023-07-30T00:40:02;14.93;;;3.70;;
64387;SDS011;50709;52.648;4.764;2023-07-30T00:42:28;12.38;;;3.67;;
64387;SDS011;50709;52.648;4.764;2023-07-30T00:44:54;20.00;;;5.03;;
64387;SDS011;50709;52.648;4.764;2023-07-30T00:47:20;13.93;;;3.60;;
64387;SDS011;50709;52.648;4.764;2023-07-30T00:49:46;15.00;;;3.47;;
64387;SDS011;50709;52.648;4.764;2023-07-30T00:52:12;16.13;;;3.80;;
64387;SDS011;50709;52.648;4.764;2023-07-30T00:54:38;9.48;;;3.63;;
64387;SDS011;50709;52.648;4.764;2023-07-30T00:57:04;13.07;;;3.50;;
64387;SDS011;50709;52.648;4.764;2023-07-30T00:59:31;11.40;;;3.45;;
64387;SDS011;50709;52.648;4.764;2023-07-30T01:01:57;11.57;;;3.63;;
64387;SDS011;50709;52.648;4.764;2023-07-30T01:04:24;15.10;;;3.50;;
64387;SDS011;50709;52.648;4.764;2023-07-30T01:06:50;14.40;;;4.40;;
64387;SDS011;50709;52.648;4.764;2023-07-30T01:09:15;14.57;;;3.60;;
64387;SDS011;50709;52.648;4.764;2023-07-30T01:11:41;14.63;;;3.63;;
64387;SDS011;50709;52.648;4.764;2023-07-30T01:14:08;12.30;;;3.53;;
64387;SDS011;50709;52.648;4.764;2023-07-30T01:16:35;15.85;;;3.88;;
64387;SDS011;50709;52.648;4.764;2023-07-30T01:19:00;12.05;;;3.28;;
64387;SDS011;50709;52.648;4.764;2023-07-30T01:21:30;13.27;;;5.05;;
64387;SDS011;50709;52.648;4.764;2023-07-30T01:23:57;9.23;;;3.30;;
64387;SDS011;50709;52.648;4.764;2023-07-30T01:26:24;7.63;;;2.60;;
64387;SDS011;50709;52.648;4.764;2023-07-30T01:28:54;7.45;;;2.47;;
64387;SDS011;50709;52.648;4.764;2023-07-30T01:31:23;11.52;;;3.10;;
64387;SDS011;50709;52.648;4.764;2023-07-30T01:33:52;7.22;;;2.40;;
64387;SDS011;50709;52.648;4.764;2023-07-30T01:36:19;7.25;;;2.55;;
64387;SDS011;50709;52.648;4.764;2023-07-30T01:38:45;8.98;;;2.65;;
64387;SDS011;50709;52.648;4.764;2023-07-30T01:41:12;8.45;;;2.78;;
64387;SDS011;50709;52.648;4.764;2023-07-30T01:43:38;6.22;;;2.15;;
64387;SDS011;50709;52.648;4.764;2023-07-30T01:46:03;8.45;;;2.35;;
64387;SDS011;50709;52.648;4.764;2023-07-30T01:48:29;8.65;;;2.38;;
64387;SDS011;50709;52.648;4.764;2023-07-30T01:50:54;6.43;;;2.35;;
64387;SDS011;50709;52.648;4.764;2023-07-30T01:53:20;7.38;;;3.08;;
64387;SDS011;50709;52.648;4.764;2023-07-30T01:55:45;8.07;;;2.30;;
64387;SDS011;50709;52.648;4.764;2023-07-30T01:58:13;11.15;;;2.63;;
64387;SDS011;50709;52.648;4.764;2023-07-30T02:00:39;8.57;;;2.50;;
64387;SDS011;50709;52.648;4.764;2023-07-30T02:03:05;6.30;;;2.40;;
64387;SDS011;50709;52.648;4.764;2023-07-30T02:05:31;8.52;;;3.03;;
64387;SDS011;50709;52.648;4.764;2023-07-30T02:07:57;8.73;;;2.50;;
64387;SDS011;50709;52.648;4.764;2023-07-30T02:10:24;5.38;;;2.30;;
64387;SDS011;50709;52.648;4.764;2023-07-30T02:12:50;7.07;;;2.20;;
64387;SDS011;50709;52.648;4.764;2023-07-30T02:15:15;4.13;;;1.98;;
64387;SDS011;50709;52.648;4.764;2023-07-30T02:17:40;5.20;;;2.20;;
64387;SDS011;50709;52.648;4.764;2023-07-30T02:20:06;9.07;;;2.50;;
64387;SDS011;50709;52.648;4.764;2023-07-30T02:22:32;4.50;;;2.20;;
64387;SDS011;50709;52.648;4.764;2023-07-30T02:24:57;8.63;;;2.38;;
64387;SDS011;50709;52.648;4.764;2023-07-30T02:27:23;7.20;;;2.20;;
64387;SDS011;50709;52.648;4.764;2023-07-30T02:29:48;6.00;;;2.30;;
64387;SDS011;50709;52.648;4.764;2023-07-30T02:32:14;6.28;;;2.13;;
64387;SDS011;50709;52.648;4.764;2023-07-30T02:34:39;7.60;;;2.30;;
64387;SDS011;50709;52.648;4.764;2023-07-30T02:37:04;5.35;;;2.10;;
64387;SDS011;50709;52.648;4.764;2023-07-30T02:39:30;6.25;;;2.47;;
64387;SDS011;50709;52.648;4.764;2023-07-30T02:41:55;8.40;;;2.20;;
64387;SDS011;50709;52.648;4.764;2023-07-30T02:44:21;5.10;;;2.35;;
64387;SDS011;50709;52.648;4.764;2023-07-30T02:46:46;8.88;;;2.20;;
64387;SDS011;50709;52.648;4.764;2023-07-30T02:49:11;5.88;;;2.15;;
64387;SDS011;50709;52.648;4.764;2023-07-30T02:51:37;5.75;;;2.20;;
64387;SDS011;50709;52.648;4.764;2023-07-30T02:54:06;4.97;;;2.10;;
64387;SDS011;50709;52.648;4.764;2023-07-30T02:56:33;6.88;;;2.22;;
64387;SDS011;50709;52.648;4.764;2023-07-30T02:58:58;6.72;;;2.08;;
64387;SDS011;50709;52.648;4.764;2023-07-30T03:01:24;6.40;;;2.17;;
64387;SDS011;50709;52.648;4.764;2023-07-30T03:03:49;6.60;;;2.40;;
64387;SDS011;50709;52.648;4.764;2023-07-30T03:06:15;5.13;;;2.35;;
64387;SDS011;50709;52.648;4.764;2023-07-30T03:08:42;5.70;;;2.30;;
64387;SDS011;50709;52.648;4.764;2023-07-30T03:11:08;9.32;;;2.35;;
64387;SDS011;50709;52.648;4.764;2023-07-30T03:13:33;7.90;;;2.63;;
64387;SDS011;50709;52.648;4.764;2023-07-30T03:15:59;4.10;;;2.17;;
64387;SDS011;50709;52.648;4.764;2023-07-30T03:18:24;6.53;;;2.40;;
64387;SDS011;50709;52.648;4.764;2023-07-30T03:20:49;6.53;;;2.20;;
64387;SDS011;50709;52.648;4.764;2023-07-30T03:23:15;11.02;;;2.63;;
64387;SDS011;50709;52.648;4.764;2023-07-30T03:25:40;5.25;;;2.20;;
64387;SDS011;50709;52.648;4.764;2023-07-30T03:28:06;7.13;;;2.70;;
64387;SDS011;50709;52.648;4.764;2023-07-30T03:30:31;5.75;;;2.47;;
64387;SDS011;50709;52.648;4.764;2023-07-30T03:32:56;5.05;;;2.28;;
64387;SDS011;50709;52.648;4.764;2023-07-30T03:35:22;8.70;;;2.50;;
64387;SDS011;50709;52.648;4.764;2023-07-30T03:37:47;6.05;;;2.45;;
64387;SDS011;50709;52.648;4.764;2023-07-30T03:40:13;6.40;;;2.53;;
64387;SDS011;50709;52.648;4.764;2023-07-30T03:42:38;6.28;;;2.42;;
64387;SDS011;50709;52.648;4.764;2023-07-30T03:45:04;5.70;;;2.20;;
64387;SDS011;50709;52.648;4.764;2023-07-30T03:47:30;7.80;;;2.58;;
64387;SDS011;50709;52.648;4.764;2023-07-30T03:49:55;7.15;;;2.65;;
64387;SDS011;50709;52.648;4.764;2023-07-30T03:52:20;7.45;;;2.38;;
64387;SDS011;50709;52.648;4.764;2023-07-30T03:54:46;7.53;;;3.03;;
64387;SDS011;50709;52.648;4.764;2023-07-30T03:57:11;11.00;;;2.78;;
64387;SDS011;50709;52.648;4.764;2023-07-30T03:59:37;7.30;;;2.50;;
64387;SDS011;50709;52.648;4.764;2023-07-30T04:02:02;8.18;;;2.60;;
64387;SDS011;50709;52.648;4.764;2023-07-30T04:04:29;5.57;;;2.60;;
64387;SDS011;50709;52.648;4.764;2023-07-30T04:06:54;7.68;;;2.60;;
64387;SDS011;50709;52.648;4.764;2023-07-30T04:09:20;7.55;;;2.53;;
64387;SDS011;50709;52.648;4.764;2023-07-30T04:11:45;6.57;;;2.60;;
64387;SDS011;50709;52.648;4.764;2023-07-30T04:14:10;6.53;;;2.65;;
64387;SDS011;50709;52.648;4.764;2023-07-30T04:16:36;9.52;;;2.75;;
64387;SDS011;50709;52.648;4.764;2023-07-30T04:19:01;8.85;;;2.60;;
64387;SDS011;50709;52.648;4.764;2023-07-30T04:21:27;8.25;;;2.67;;
64387;SDS011;50709;52.648;4.764;2023-07-30T04:23:52;8.35;;;2.80;;
64387;SDS011;50709;52.648;4.764;2023-07-30T04:26:17;5.25;;;2.20;;
64387;SDS011;50709;52.648;4.764;2023-07-30T04:28:43;9.27;;;3.05;;
64387;SDS011;50709;52.648;4.764;2023-07-30T04:31:08;6.57;;;2.38;;
64387;SDS011;50709;52.648;4.764;2023-07-30T04:33:33;9.20;;;2.78;;
64387;SDS011;50709;52.648;4.764;2023-07-30T04:35:59;5.90;;;2.47;;
64387;SDS011;50709;52.648;4.764;2023-07-30T04:38:24;8.88;;;2.30;;
64387;SDS011;50709;52.648;4.764;2023-07-30T04:40:50;7.03;;;2.08;;
64387;SDS011;50709;52.648;4.764;2023-07-30T04:43:15;7.45;;;2.50;;
64387;SDS011;50709;52.648;4.764;2023-07-30T04:45:41;8.40;;;2.70;;
64387;SDS011;50709;52.648;4.764;2023-07-30T04:48:07;8.23;;;2.67;;
64387;SDS011;50709;52.648;4.764;2023-07-30T04:50:33;7.18;;;2.30;;
64387;SDS011;50709;52.648;4.764;2023-07-30T04:52:58;7.07;;;2.25;;
64387;SDS011;50709;52.648;4.764;2023-07-30T04:55:24;8.32;;;2.80;;
64387;SDS011;50709;52.648;4.764;2023-07-30T04:57:49;8.85;;;2.38;;
64387;SDS011;50709;52.648;4.764;2023-07-30T05:00:14;6.25;;;2.10;;
64387;SDS011;50709;52.648;4.764;2023-07-30T05:02:40;9.82;;;2.85;;
64387;SDS011;50709;52.648;4.764;2023-07-30T05:05:05;7.50;;;2.88;;
64387;SDS011;50709;52.648;4.764;2023-07-30T05:07:31;4.68;;;2.38;;
64387;SDS011;50709;52.648;4.764;2023-07-30T05:09:56;4.95;;;2.05;;
64387;SDS011;50709;52.648;4.764;2023-07-30T05:12:22;9.02;;;2.38;;
64387;SDS011;50709;52.648;4.764;2023-07-30T05:14:47;9.52;;;2.97;;
64387;SDS011;50709;52.648;4.764;2023-07-30T05:17:13;6.13;;;2.28;;
64387;SDS011;50709;52.648;4.764;2023-07-30T05:19:38;7.47;;;2.70;;
64387;SDS011;50709;52.648;4.764;2023-07-30T05:22:04;6.22;;;3.03;;
64387;SDS011;50709;52.648;4.764;2023-07-30T05:24:30;5.95;;;2.20;;
64387;SDS011;50709;52.648;4.764;2023-07-30T05:26:56;7.20;;;2.20;;
64387;SDS011;50709;52.648;4.764;2023-07-30T05:29:21;9.95;;;2.50;;
64387;SDS011;50709;52.648;4.764;2023-07-30T05:31:47;5.88;;;2.15;;
64387;SDS011;50709;52.648;4.764;2023-07-30T05:34:12;6.05;;;2.50;;
64387;SDS011;50709;52.648;4.764;2023-07-30T05:36:37;7.63;;;1.98;;
64387;SDS011;50709;52.648;4.764;2023-07-30T05:39:03;8.18;;;2.20;;
64387;SDS011;50709;52.648;4.764;2023-07-30T05:41:28;7.78;;;2.15;;
64387;SDS011;50709;52.648;4.764;2023-07-30T05:43:53;10.15;;;2.97;;
64387;SDS011;50709;52.648;4.764;2023-07-30T05:46:19;6.57;;;2.05;;
64387;SDS011;50709;52.648;4.764;2023-07-30T05:48:45;8.48;;;2.20;;
64387;SDS011;50709;52.648;4.764;2023-07-30T05:51:10;14.43;;;2.58;;
64387;SDS011;50709;52.648;4.764;2023-07-30T05:53:35;7.32;;;2.60;;
64387;SDS011;50709;52.648;4.764;2023-07-30T05:56:02;5.35;;;2.13;;
64387;SDS011;50709;52.648;4.764;2023-07-30T05:58:27;5.00;;;2.03;;
64387;SDS011;50709;52.648;4.764;2023-07-30T06:00:53;7.70;;;2.40;;
64387;SDS011;50709;52.648;4.764;2023-07-30T06:03:18;7.88;;;2.85;;
64387;SDS011;50709;52.648;4.764;2023-07-30T06:05:44;7.47;;;2.60;;
64387;SDS011;50709;52.648;4.764;2023-07-30T06:08:09;3.72;;;1.73;;
64387;SDS011;50709;52.648;4.764;2023-07-30T06:10:35;5.88;;;2.88;;
64387;SDS011;50709;52.648;4.764;2023-07-30T06:13:02;8.27;;;2.53;;
64387;SDS011;50709;52.648;4.764;2023-07-30T06:15:28;7.15;;;2.10;;
64387;SDS011;50709;52.648;4.764;2023-07-30T06:17:53;8.80;;;2.42;;
64387;SDS011;50709;52.648;4.764;2023-07-30T06:20:19;9.50;;;2.50;;
64387;SDS011;50709;52.648;4.764;2023-07-30T06:22:44;5.40;;;2.22;;
64387;SDS011;50709;52.648;4.764;2023-07-30T06:25:09;7.47;;;2.42;;
64387;SDS011;50709;52.648;4.764;2023-07-30T06:27:35;9.52;;;3.00;;
64387;SDS011;50709;52.648;4.764;2023-07-30T06:30:00;7.47;;;2.75;;
64387;SDS011;50709;52.648;4.764;2023-07-30T06:32:26;8.82;;;3.00;;
64387;SDS011;50709;52.648;4.764;2023-07-30T06:34:51;6.38;;;2.72;;
64387;SDS011;50709;52.648;4.764;2023-07-30T06:37:16;10.65;;;2.60;;
64387;SDS011;50709;52.648;4.764;2023-07-30T06:39:42;6.65;;;2.20;;
64387;SDS011;50709;52.648;4.764;2023-07-30T06:42:07;6.22;;;2.50;;
64387;SDS011;50709;52.648;4.764;2023-07-30T06:44:33;8.18;;;2.35;;
64387;SDS011;50709;52.648;4.764;2023-07-30T06:46:59;6.82;;;2.70;;
64387;SDS011;50709;52.648;4.764;2023-07-30T06:49:25;7.93;;;2.45;;
64387;SDS011;50709;52.648;4.764;2023-07-30T06:51:50;8.57;;;2.78;;
64387;SDS011;50709;52.648;4.764;2023-07-30T06:54:17;7.68;;;2.35;;
64387;SDS011;50709;52.648;4.764;2023-07-30T06:56:42;6.05;;;2.67;;
64387;SDS011;50709;52.648;4.764;2023-07-30T06:59:07;6.57;;;2.97;;
64387;SDS011;50709;52.648;4.764;2023-07-30T07:01:33;6.32;;;2.50;;
64387;SDS011;50709;52.648;4.764;2023-07-30T07:03:58;9.10;;;3.13;;
64387;SDS011;50709;52.648;4.764;2023-07-30T07:06:24;8.95;;;2.40;;
64387;SDS011;50709;52.648;4.764;2023-07-30T07:08:49;9.93;;;2.50;;
64387;SDS011;50709;52.648;4.764;2023-07-30T07:11:14;6.35;;;2.35;;
64387;SDS011;50709;52.648;4.764;2023-07-30T07:13:40;8.43;;;3.03;;
64387;SDS011;50709;52.648;4.764;2023-07-30T07:16:05;6.32;;;2.22;;
64387;SDS011;50709;52.648;4.764;2023-07-30T07:18:31;7.70;;;2.63;;
64387;SDS011;50709;52.648;4.764;2023-07-30T07:20:56;8.73;;;2.50;;
64387;SDS011;50709;52.648;4.764;2023-07-30T07:23:22;6.82;;;2.20;;
64387;SDS011;50709;52.648;4.764;2023-07-30T07:25:47;5.93;;;2.25;;
64387;SDS011;50709;52.648;4.764;2023-07-30T07:28:12;4.28;;;2.25;;
64387;SDS011;50709;52.648;4.764;2023-07-30T07:30:38;5.90;;;2.08;;
64387;SDS011;50709;52.648;4.764;2023-07-30T07:33:03;4.45;;;2.20;;
64387;SDS011;50709;52.648;4.764;2023-07-30T07:35:30;5.70;;;2.60;;
64387;SDS011;50709;52.648;4.764;2023-07-30T07:37:56;4.70;;;2.08;;
64387;SDS011;50709;52.648;4.764;2023-07-30T07:40:22;8.82;;;2.10;;
64387;SDS011;50709;52.648;4.764;2023-07-30T07:42:48;5.68;;;2.40;;
64387;SDS011;50709;52.648;4.764;2023-07-30T07:45:14;7.63;;;2.22;;
64387;SDS011;50709;52.648;4.764;2023-07-30T07:47:40;4.97;;;2.05;;
64387;SDS011;50709;52.648;4.764;2023-07-30T07:50:05;6.55;;;2.17;;
64387;SDS011;50709;52.648;4.764;2023-07-30T07:52:31;6.25;;;2.55;;
64387;SDS011;50709;52.648;4.764;2023-07-30T07:54:56;7.28;;;2.45;;
64387;SDS011;50709;52.648;4.764;2023-07-30T07:57:22;8.25;;;2.20;;
64387;SDS011;50709;52.648;4.764;2023-07-30T07:59:47;5.03;;;2.10;;
64387;SDS011;50709;52.648;4.764;2023-07-30T08:02:13;6.20;;;2.40;;
64387;SDS011;50709;52.648;4.764;2023-07-30T08:04:39;7.38;;;2.10;;
64387;SDS011;50709;52.648;4.764;2023-07-30T08:07:04;5.00;;;1.88;;
64387;SDS011;50709;52.648;4.764;2023-07-30T08:09:50;5.75;;;1.83;;
64387;SDS011;50709;52.648;4.764;2023-07-30T08:12:16;6.47;;;1.95;;
64387;SDS011;50709;52.648;4.764;2023-07-30T08:14:42;9.27;;;2.55;;
64387;SDS011;50709;52.648;4.764;2023-07-30T08:17:07;6.07;;;2.20;;
64387;SDS011;50709;52.648;4.764;2023-07-30T08:19:33;7.80;;;2.60;;
64387;SDS011;50709;52.648;4.764;2023-07-30T08:21:58;7.68;;;2.50;;
64387;SDS011;50709;52.648;4.764;2023-07-30T08:24:24;5.43;;;2.47;;
64387;SDS011;50709;52.648;4.764;2023-07-30T08:26:49;5.10;;;2.35;;
64387;SDS011;50709;52.648;4.764;2023-07-30T08:29:15;5.97;;;2.17;;
64387;SDS011;50709;52.648;4.764;2023-07-30T08:31:40;6.78;;;2.30;;
64387;SDS011;50709;52.648;4.764;2023-07-30T08:34:06;5.03;;;2.10;;
64387;SDS011;50709;52.648;4.764;2023-07-30T08:36:31;10.52;;;2.60;;
64387;SDS011;50709;52.648;4.764;2023-07-30T08:38:57;6.47;;;2.20;;
64387;SDS011;50709;52.648;4.764;2023-07-30T08:41:23;7.10;;;2.60;;
64387;SDS011;50709;52.648;4.764;2023-07-30T08:43:48;9.50;;;3.17;;
64387;SDS011;50709;52.648;4.764;2023-07-30T08:46:14;7.43;;;2.30;;
64387;SDS011;50709;52.648;4.764;2023-07-30T08:48:40;10.30;;;3.15;;
64387;SDS011;50709;52.648;4.764;2023-07-30T08:51:06;6.03;;;2.60;;
64387;SDS011;50709;52.648;4.764;2023-07-30T08:53:31;6.95;;;2.50;;
64387;SDS011;50709;52.648;4.764;2023-07-30T08:55:57;5.70;;;2.30;;
64387;SDS011;50709;52.648;4.764;2023-07-30T08:58:25;5.57;;;2.40;;
64387;SDS011;50709;52.648;4.764;2023-07-30T09:00:51;6.38;;;3.00;;
64387;SDS011;50709;52.648;4.764;2023-07-30T09:03:20;6.88;;;2.55;;
64387;SDS011;50709;52.648;4.764;2023-07-30T09:05:47;7.05;;;3.33;;
64387;SDS011;50709;52.648;4.764;2023-07-30T09:08:14;10.32;;;3.05;;
64387;SDS011;50709;52.648;4.764;2023-07-30T09:10:39;10.82;;;4.57;;
64387;SDS011;50709;52.648;4.764;2023-07-30T09:13:25;7.82;;;3.50;;
64387;SDS011;50709;52.648;4.764;2023-07-30T09:15:50;8.20;;;2.83;;
64387;SDS011;50709;52.648;4.764;2023-07-30T09:18:39;10.93;;;3.70;;
64387;SDS011;50709;52.648;4.764;2023-07-30T09:21:10;8.10;;;3.05;;
64387;SDS011;50709;52.648;4.764;2023-07-30T09:23:44;8.02;;;2.80;;
64387;SDS011;50709;52.648;4.764;2023-07-30T09:26:11;8.02;;;2.72;;
64387;SDS011;50709;52.648;4.764;2023-07-30T09:28:38;9.63;;;2.70;;
64387;SDS011;50709;52.648;4.764;2023-07-30T09:31:07;6.95;;;3.03;;
64387;SDS011;50709;52.648;4.764;2023-07-30T09:33:34;10.70;;;3.10;;
64387;SDS011;50709;52.648;4.764;2023-07-30T09:36:03;6.95;;;2.70;;
64387;SDS011;50709;52.648;4.764;2023-07-30T09:38:29;6.30;;;2.42;;
64387;SDS011;50709;52.648;4.764;2023-07-30T09:41:01;9.93;;;2.78;;
64387;SDS011;50709;52.648;4.764;2023-07-30T09:43:47;6.70;;;2.40;;
64387;SDS011;50709;52.648;4.764;2023-07-30T09:46:12;9.90;;;2.95;;
64387;SDS011;50709;52.648;4.764;2023-07-30T09:48:38;7.05;;;2.08;;
64387;SDS011;50709;52.648;4.764;2023-07-30T09:51:04;10.15;;;2.97;;
64387;SDS011;50709;52.648;4.764;2023-07-30T09:53:31;8.77;;;2.30;;
64387;SDS011;50709;52.648;4.764;2023-07-30T09:55:59;7.50;;;2.70;;
64387;SDS011;50709;52.648;4.764;2023-07-30T09:58:26;6.28;;;2.92;;
64387;SDS011;50709;52.648;4.764;2023-07-30T10:00:51;8.43;;;2.70;;
64387;SDS011;50709;52.648;4.764;2023-07-30T10:03:18;5.78;;;2.72;;
64387;SDS011;50709;52.648;4.764;2023-07-30T10:05:44;10.05;;;2.60;;
64387;SDS011;50709;52.648;4.764;2023-07-30T10:08:12;6.88;;;1.92;;
64387;SDS011;50709;52.648;4.764;2023-07-30T10:10:44;5.43;;;2.40;;
64387;SDS011;50709;52.648;4.764;2023-07-30T10:13:10;12.52;;;2.75;;
64387;SDS011;50709;52.648;4.764;2023-07-30T10:15:38;10.35;;;2.75;;
64387;SDS011;50709;52.648;4.764;2023-07-30T10:18:04;8.48;;;2.88;;
64387;SDS011;50709;52.648;4.764;2023-07-30T10:20:30;6.18;;;2.58;;
64387;SDS011;50709;52.648;4.764;2023-07-30T10:23:00;6.82;;;2.50;;
64387;SDS011;50709;52.648;4.764;2023-07-30T10:25:30;6.47;;;2.28;;
64387;SDS011;50709;52.648;4.764;2023-07-30T10:28:08;11.27;;;2.80;;
64387;SDS011;50709;52.648;4.764;2023-07-30T10:30:33;8.25;;;2.50;;
64387;SDS011;50709;52.648;4.764;2023-07-30T10:33:01;9.02;;;3.10;;
64387;SDS011;50709;52.648;4.764;2023-07-30T10:35:34;8.68;;;2.60;;
64387;SDS011;50709;52.648;4.764;2023-07-30T10:38:14;8.48;;;3.20;;
64387;SDS011;50709;52.648;4.764;2023-07-30T10:43:31;6.97;;;2.20;;
64387;SDS011;50709;52.648;4.764;2023-07-30T10:46:08;7.88;;;2.97;;
64387;SDS011;50709;52.648;4.764;2023-07-30T10:48:39;6.78;;;2.70;;
64387;SDS011;50709;52.648;4.764;2023-07-30T10:51:07;7.07;;;2.80;;
64387;SDS011;50709;52.648;4.764;2023-07-30T10:53:36;9.27;;;2.85;;
64387;SDS011;50709;52.648;4.764;2023-07-30T10:56:02;5.78;;;2.30;;
64387;SDS011;50709;52.648;4.764;2023-07-30T10:58:30;6.55;;;2.30;;
64387;SDS011;50709;52.648;4.764;2023-07-30T11:00:56;8.50;;;2.40;;
64387;SDS011;50709;52.648;4.764;2023-07-30T11:03:23;8.15;;;2.35;;
64387;SDS011;50709;52.648;4.764;2023-07-30T11:05:51;6.38;;;2.35;;
64387;SDS011;50709;52.648;4.764;2023-07-30T11:08:16;10.25;;;2.70;;
64387;SDS011;50709;52.648;4.764;2023-07-30T11:10:45;8.10;;;2.65;;
64387;SDS011;50709;52.648;4.764;2023-07-30T11:13:14;8.13;;;2.47;;
64387;SDS011;50709;52.648;4.764;2023-07-30T11:15:43;10.25;;;2.70;;
64387;SDS011;50709;52.648;4.764;2023-07-30T11:18:09;5.93;;;2.10;;
64387;SDS011;50709;52.648;4.764;2023-07-30T11:20:36;9.15;;;2.60;;
64387;SDS011;50709;52.648;4.764;2023-07-30T11:23:02;7.63;;;2.58;;
64387;SDS011;50709;52.648;4.764;2023-07-30T11:25:27;7.57;;;2.03;;
64387;SDS011;50709;52.648;4.764;2023-07-30T11:27:53;7.47;;;2.10;;
64387;SDS011;50709;52.648;4.764;2023-07-30T11:30:18;4.93;;;1.88;;
64387;SDS011;50709;52.648;4.764;2023-07-30T11:32:44;5.35;;;2.13;;
64387;SDS011;50709;52.648;4.764;2023-07-30T11:35:13;6.07;;;2.60;;
64387;SDS011;50709;52.648;4.764;2023-07-30T11:37:41;7.18;;;2.40;;
64387;SDS011;50709;52.648;4.764;2023-07-30T11:40:10;7.00;;;2.28;;
64387;SDS011;50709;52.648;4.764;2023-07-30T11:42:36;5.95;;;2.20;;
64387;SDS011;50709;52.648;4.764;2023-07-30T11:45:18;10.15;;;2.58;;
64387;SDS011;50709;52.648;4.764;2023-07-30T11:47:45;5.57;;;2.50;;
64387;SDS011;50709;52.648;4.764;2023-07-30T11:50:41;4.75;;;2.28;;
64387;SDS011;50709;52.648;4.764;2023-07-30T11:53:08;14.02;;;2.97;;
64387;SDS011;50709;52.648;4.764;2023-07-30T11:55:37;9.13;;;2.67;;
64387;SDS011;50709;52.648;4.764;2023-07-30T11:58:03;7.22;;;2.40;;
64387;SDS011;50709;52.648;4.764;2023-07-30T12:00:31;8.95;;;2.30;;
64387;SDS011;50709;52.648;4.764;2023-07-30T12:02:59;8.65;;;2.33;;
64387;SDS011;50709;52.648;4.764;2023-07-30T12:05:34;7.88;;;2.22;;
64387;SDS011;50709;52.648;4.764;2023-07-30T12:08:01;10.30;;;2.42;;
64387;SDS011;50709;52.648;4.764;2023-07-30T12:10:41;7.65;;;2.13;;
64387;SDS011;50709;52.648;4.764;2023-07-30T12:13:12;8.63;;;2.58;;
64387;SDS011;50709;52.648;4.764;2023-07-30T12:15:38;7.40;;;2.40;;
64387;SDS011;50709;52.648;4.764;2023-07-30T12:18:03;8.88;;;2.38;;
64387;SDS011;50709;52.648;4.764;2023-07-30T12:20:29;6.55;;;2.25;;
64387;SDS011;50709;52.648;4.764;2023-07-30T12:22:54;7.50;;;2.45;;
64387;SDS011;50709;52.648;4.764;2023-07-30T12:25:21;5.68;;;2.70;;
64387;SDS011;50709;52.648;4.764;2023-07-30T12:27:48;7.80;;;2.53;;
64387;SDS011;50709;52.648;4.764;2023-07-30T12:30:13;8.32;;;2.65;;
64387;SDS011;50709;52.648;4.764;2023-07-30T12:32:39;6.45;;;2.50;;
64387;SDS011;50709;52.648;4.764;2023-07-30T12:35:04;7.25;;;2.83;;
64387;SDS011;50709;52.648;4.764;2023-07-30T12:37:30;8.00;;;2.03;;
64387;SDS011;50709;52.648;4.764;2023-07-30T12:39:57;5.88;;;2.10;;
64387;SDS011;50709;52.648;4.764;2023-07-30T12:42:23;5.20;;;2.78;;
64387;SDS011;50709;52.648;4.764;2023-07-30T12:44:48;5.22;;;2.17;;
64387;SDS011;50709;52.648;4.764;2023-07-30T12:47:14;17.42;;;4.13;;
64387;SDS011;50709;52.648;4.764;2023-07-30T12:49:39;6.47;;;2.22;;
64387;SDS011;50709;52.648;4.764;2023-07-30T12:52:04;6.68;;;2.53;;
64387;SDS011;50709;52.648;4.764;2023-07-30T12:54:30;9.77;;;2.28;;
64387;SDS011;50709;52.648;4.764;2023-07-30T12:56:56;4.95;;;1.83;;
64387;SDS011;50709;52.648;4.764;2023-07-30T12:59:21;7.45;;;2.35;;
64387;SDS011;50709;52.648;4.764;2023-07-30T13:01:47;9.57;;;2.33;;
64387;SDS011;50709;52.648;4.764;2023-07-30T13:04:12;6.72;;;2.45;;
64387;SDS011;50709;52.648;4.764;2023-07-30T13:06:38;7.50;;;2.65;;
64387;SDS011;50709;52.648;4.764;2023-07-30T13:09:03;9.13;;;2.28;;
64387;SDS011;50709;52.648;4.764;2023-07-30T13:11:28;7.78;;;2.50;;
64387;SDS011;50709;52.648;4.764;2023-07-30T13:13:54;8.15;;;2.25;;
64387;SDS011;50709;52.648;4.764;2023-07-30T13:16:19;7.75;;;2.47;;
64387;SDS011;50709;52.648;4.764;2023-07-30T13:18:45;6.68;;;2.10;;
64387;SDS011;50709;52.648;4.764;2023-07-30T13:21:10;7.70;;;3.15;;
64387;SDS011;50709;52.648;4.764;2023-07-30T13:23:36;5.60;;;2.30;;
64387;SDS011;50709;52.648;4.764;2023-07-30T13:26:03;4.80;;;2.20;;
64387;SDS011;50709;52.648;4.764;2023-07-30T13:28:28;5.43;;;1.92;;
64387;SDS011;50709;52.648;4.764;2023-07-30T13:30:54;7.35;;;2.00;;
64387;SDS011;50709;52.648;4.764;2023-07-30T13:33:19;8.50;;;2.20;;
64387;SDS011;50709;52.648;4.764;2023-07-30T13:35:45;6.30;;;2.63;;
64387;SDS011;50709;52.648;4.764;2023-07-30T13:38:10;8.77;;;2.50;;
64387;SDS011;50709;52.648;4.764;2023-07-30T13:40:36;7.45;;;2.30;;
64387;SDS011;50709;52.648;4.764;2023-07-30T13:43:01;4.75;;;2.10;;
64387;SDS011;50709;52.648;4.764;2023-07-30T13:45:27;5.53;;;2.30;;
64387;SDS011;50709;52.648;4.764;2023-07-30T13:47:53;4.80;;;2.10;;
64387;SDS011;50709;52.648;4.764;2023-07-30T13:50:18;8.07;;;1.95;;
64387;SDS011;50709;52.648;4.764;2023-07-30T13:52:44;10.95;;;2.38;;
64387;SDS011;50709;52.648;4.764;2023-07-30T13:55:09;8.27;;;2.63;;
64387;SDS011;50709;52.648;4.764;2023-07-30T13:57:35;8.38;;;2.50;;
64387;SDS011;50709;52.648;4.764;2023-07-30T14:00:01;5.55;;;1.92;;
64387;SDS011;50709;52.648;4.764;2023-07-30T14:02:27;9.35;;;2.17;;
64387;SDS011;50709;52.648;4.764;2023-07-30T14:04:52;7.65;;;2.38;;
64387;SDS011;50709;52.648;4.764;2023-07-30T14:07:18;9.00;;;2.58;;
64387;SDS011;50709;52.648;4.764;2023-07-30T14:09:43;9.88;;;2.50;;
64387;SDS011;50709;52.648;4.764;2023-07-30T14:12:09;5.97;;;2.20;;
64387;SDS011;50709;52.648;4.764;2023-07-30T14:14:35;4.63;;;2.30;;
64387;SDS011;50709;52.648;4.764;2023-07-30T14:17:00;8.07;;;2.20;;
64387;SDS011;50709;52.648;4.764;2023-07-30T14:19:31;6.15;;;2.70;;
64387;SDS011;50709;52.648;4.764;2023-07-30T14:21:56;6.85;;;2.63;;
64387;SDS011;50709;52.648;4.764;2023-07-30T14:24:22;7.20;;;2.15;;
64387;SDS011;50709;52.648;4.764;2023-07-30T14:26:48;6.13;;;2.15;;
64387;SDS011;50709;52.648;4.764;2023-07-30T14:29:13;7.45;;;2.10;;
64387;SDS011;50709;52.648;4.764;2023-07-30T14:31:39;7.75;;;2.00;;
64387;SDS011;50709;52.648;4.764;2023-07-30T14:34:04;5.88;;;2.03;;
64387;SDS011;50709;52.648;4.764;2023-07-30T14:36:29;9.30;;;2.55;;
64387;SDS011;50709;52.648;4.764;2023-07-30T14:38:55;5.78;;;2.25;;
64387;SDS011;50709;52.648;4.764;2023-07-30T14:41:20;7.05;;;2.42;;
64387;SDS011;50709;52.648;4.764;2023-07-30T14:43:46;8.50;;;2.28;;